Amity, Indiana
Current Conditions -  °F | °C
As of 3:15 PM on Sunday 25 Jan 2015 (Local Time) from K1II Reporting Station
Light Rain Light Rain  
Wind Chill: 34°   Ceiling: 2900
Heat Index: 37°   Visibility: 10mi
Dew Point: 34°   Wind: 5mph
Humidity: 87%   Direction: 120°ESE
Pressure: 29.62"   Gusts: NA
Location:  39.4841°N, 86.0843°W
Report Text: K1II 252015Z AUTO 12004KT 10SM -RA SCT015 OVC029 03/01 A2962 RMK AO2
Loading
Personal Weather Stations






























Interactive Weather Map New forecast layout! Learn more

10-Day Weather Forecast

Advertisements
Track Severe Weather on mobile